Arverne, New York
Current Conditions -  °F | °C
As of 12:51 PM on Wednesday 28 Jan 2015 (Local Time) from KJFK Reporting Station
Scattered Clouds Scattered Clouds  
Wind Chill: 18°   Ceiling: Unl
Heat Index: 29°   Visibility: 10mi
Dew Point:   Wind: 14mph
Humidity: 43%   Direction: 310°NW
Pressure: 30.06"   Gusts: NA
Location:  40.59°N, 73.8°W
Report Text: KJFK 281751Z 31012KT 10SM R04R/4500VP6000FT FEW100 SCT250 M02/M13 A3006 RMK AO2 SLP179 4/010 933012 T10171128 11017 21078 50005 $
Loading
Personal Weather Stations






























Interactive Weather Map New forecast layout! Learn more

10-Day Weather Forecast

Advertisements
Track Severe Weather on mobile